Time;durP1;ratioP1;P1;durP2;ratioP2;P2;SDS_P1;SDS_P2;PMS_P1;PMS_P2;Temp;Humidity;BMP_temperature;BMP_pressure;BME280_temperature;BME280_humidity;BME280_pressure;Samples;Min_cycle;Max_cycle;Signal;HPM_P1;HPM_P2
2022/08/08 00:01:16;;;;;;;1.88;1.77;;;20.90;99.90;;;;;;5071022;28;20217;-76
2022/08/08 00:04:00;;;;;;;1.73;1.63;;;20.80;99.90;;;;;;5071681;28;20250;-75
2022/08/08 00:06:36;;;;;;;1.65;1.55;;;20.80;99.90;;;;;;5071921;28;20671;-76
2022/08/08 00:09:09;;;;;;;2.10;2.00;;;20.80;99.90;;;;;;5068897;28;20213;-76
2022/08/08 00:11:41;;;;;;;2.10;2.00;;;20.70;99.90;;;;;;5065122;28;20201;-77
2022/08/08 00:14:13;;;;;;;3.08;1.83;;;20.60;99.90;;;;;;5064766;28;20588;-76
2022/08/08 00:16:46;;;;;;;1.50;1.40;;;20.60;99.90;;;;;;5066929;28;20221;-77
2022/08/08 00:19:21;;;;;;;1.70;1.60;;;20.60;99.90;;;;;;5069274;28;20234;-76
2022/08/08 00:21:53;;;;;;;1.70;1.60;;;20.50;99.90;;;;;;5067929;28;20221;-76
2022/08/08 00:24:26;;;;;;;1.80;1.70;;;20.50;99.90;;;;;;5068738;28;20202;-77
2022/08/08 00:26:57;;;;;;;1.80;1.70;;;20.50;99.90;;;;;;5066596;28;20279;-76
2022/08/08 00:29:29;;;;;;;1.50;1.40;;;20.40;99.90;;;;;;5066577;28;20200;-76
2022/08/08 00:32:03;;;;;;;1.55;1.42;;;20.40;99.90;;;;;;5067076;28;20201;-76
2022/08/08 00:35:13;;;;;;;1.60;1.50;;;20.40;99.90;;;;;;5064601;28;20307;-75
2022/08/08 00:37:48;;;;;;;1.65;1.55;;;20.40;99.90;;;;;;5065766;28;20226;-77
2022/08/08 00:40:58;;;;;;;1.60;1.50;;;20.40;99.90;;;;;;5067809;28;20217;-76
2022/08/08 00:44:10;;;;;;;1.60;1.50;;;20.50;99.90;;;;;;5065954;28;20225;-77
2022/08/08 00:47:13;;;;;;;1.42;1.30;;;20.50;99.90;;;;;;5066340;28;20214;-76
2022/08/08 00:50:28;;;;;;;1.67;1.58;;;20.60;99.90;;;;;;5064624;28;20305;-77
2022/08/08 00:53:07;;;;;;;1.52;1.42;;;20.60;99.90;;;;;;5069230;28;20234;-76
2022/08/08 00:56:16;;;;;;;1.70;1.60;;;20.60;99.90;;;;;;5062545;28;20194;-76
2022/08/08 00:59:16;;;;;;;1.60;1.50;;;20.70;99.90;;;;;;5011545;28;20232;-76
2022/08/08 01:02:06;;;;;;;1.80;1.70;;;20.70;99.90;;;;;;5026476;28;20229;-76
2022/08/08 01:05:13;;;;;;;1.80;1.70;;;20.70;99.90;;;;;;5064902;28;20580;-77
2022/08/08 01:08:23;;;;;;;1.60;1.50;;;20.60;99.90;;;;;;5065180;28;20255;-76
2022/08/08 01:11:14;;;;;;;1.60;1.50;;;20.60;99.90;;;;;;5063241;28;20558;-76
2022/08/08 01:14:18;;;;;;;1.60;1.50;;;20.60;99.90;;;;;;5074511;28;20599;-76
2022/08/08 01:17:24;;;;;;;1.50;1.40;;;20.60;99.90;;;;;;5067708;28;20198;-78
2022/08/08 01:20:27;;;;;;;1.70;1.60;;;20.60;99.90;;;;;;5047295;28;20238;-76
2022/08/08 01:23:29;;;;;;;1.75;1.65;;;20.70;99.90;;;;;;5068533;28;20221;-76
2022/08/08 01:26:16;;;;;;;1.90;1.73;;;20.70;99.90;;;;;;5068500;28;20198;-76
2022/08/08 01:29:10;;;;;;;1.40;1.30;;;20.60;99.90;;;;;;5066545;28;20225;-75
2022/08/08 01:32:15;;;;;;;1.98;1.77;;;20.60;99.90;;;;;;5026428;28;20268;-76
2022/08/08 01:35:13;;;;;;;1.60;1.50;;;20.70;99.90;;;;;;5054693;28;20293;-75
2022/08/08 01:38:18;;;;;;;1.67;1.58;;;20.70;99.90;;;;;;5068650;28;20227;-76
2022/08/08 01:40:54;;;;;;;1.58;1.48;;;20.60;99.90;;;;;;5070343;28;20225;-77
2022/08/08 01:43:40;;;;;;;1.60;1.50;;;20.60;99.90;;;;;;5068802;28;20217;-76
2022/08/08 01:46:25;;;;;;;1.40;1.40;;;20.60;99.90;;;;;;5069790;28;20194;-75
2022/08/08 01:49:02;;;;;;;1.33;1.30;;;20.60;99.90;;;;;;5066845;28;20244;-77
2022/08/08 01:51:53;;;;;;;1.42;1.33;;;20.60;99.90;;;;;;5069709;28;20190;-76
2022/08/08 01:54:43;;;;;;;1.58;1.48;;;20.60;99.90;;;;;;5069424;28;20210;-77
2022/08/08 01:57:24;;;;;;;2.45;1.85;;;20.60;99.90;;;;;;5062645;28;21008;-76
2022/08/08 02:00:08;;;;;;;1.70;1.60;;;20.60;99.90;;;;;;5096533;22;20324;-81
2022/08/08 02:02:58;;;;;;;1.95;1.85;;;20.60;99.90;;;;;;5066969;28;20222;-82
2022/08/08 02:05:35;;;;;;;1.67;1.58;;;20.60;99.90;;;;;;5070706;28;20194;-81
2022/08/08 02:08:14;;;;;;;1.80;1.70;;;20.50;99.90;;;;;;5068602;28;20221;-81
2022/08/08 02:10:57;;;;;;;1.85;1.70;;;20.50;99.90;;;;;;5070090;28;20243;-81
2022/08/08 02:13:31;;;;;;;1.75;1.65;;;20.40;99.90;;;;;;5068843;28;20349;-81
2022/08/08 02:16:07;;;;;;;1.80;1.70;;;20.40;99.90;;;;;;5073391;28;20222;-80
2022/08/08 02:18:42;;;;;;;1.77;1.67;;;20.40;99.90;;;;;;5062501;28;20225;-81
2022/08/08 02:24:17;;;;;;;1.83;1.73;;;20.30;99.90;;;;;;5065994;28;20254;-81
2022/08/08 02:26:51;;;;;;;1.75;1.52;;;20.20;99.90;;;;;;5067031;28;20190;-80
2022/08/08 02:29:38;;;;;;;1.70;1.60;;;20.20;99.90;;;;;;5067704;28;20222;-80
2022/08/08 02:32:19;;;;;;;1.60;1.50;;;20.20;99.90;;;;;;5067805;28;20194;-81
2022/08/08 02:35:20;;;;;;;1.77;1.67;;;20.20;99.90;;;;;;5065275;28;20205;-80
2022/08/08 02:38:16;;;;;;;1.75;1.50;;;20.20;99.90;;;;;;5070673;28;20226;-81
2022/08/08 02:40:58;;;;;;;1.85;1.75;;;20.20;99.90;;;;;;5070101;28;20219;-80
2022/08/08 02:43:48;;;;;;;2.35;1.90;;;20.10;99.90;;;;;;5066843;28;20577;-82
2022/08/08 02:46:36;;;;;;;1.80;1.70;;;20.10;99.90;;;;;;5063161;28;20195;-81
2022/08/08 02:49:45;;;;;;;1.77;1.67;;;20.10;99.90;;;;;;5072253;28;20217;-82
2022/08/08 02:52:42;;;;;;;1.70;1.60;;;20.00;99.90;;;;;;5067242;28;20606;-81
2022/08/08 02:55:47;;;;;;;1.80;1.70;;;20.00;99.90;;;;;;5070430;28;21035;-81
2022/08/08 02:59:04;;;;;;;1.92;1.83;;;20.00;99.90;;;;;;5056254;28;20214;-80
2022/08/08 03:02:14;;;;;;;1.48;1.48;;;19.90;99.90;;;;;;5066592;28;20243;-81
2022/08/08 03:05:21;;;;;;;1.85;1.75;;;19.90;99.90;;;;;;4991801;28;20220;-81
2022/08/08 03:08:22;;;;;;;1.90;1.80;;;19.90;99.90;;;;;;5044769;28;20216;-80
2022/08/08 03:11:39;;;;;;;1.70;1.60;;;19.90;99.90;;;;;;5067906;28;20205;-81
2022/08/08 03:14:44;;;;;;;1.80;1.70;;;19.80;99.90;;;;;;5065992;28;20218;-80
2022/08/08 03:17:17;;;;;;;2.15;1.80;;;19.80;99.90;;;;;;5063316;28;20217;-80
2022/08/08 03:20:05;;;;;;;2.00;1.90;;;19.80;99.90;;;;;;5064081;28;20293;-81
2022/08/08 03:22:32;;;;;;;1.70;1.60;;;19.80;99.90;;;;;;5072341;28;20219;-80
2022/08/08 03:25:04;;;;;;;1.90;1.80;;;19.80;99.90;;;;;;5064820;28;20202;-81
2022/08/08 03:27:37;;;;;;;2.00;1.90;;;19.80;99.90;;;;;;5060243;28;20225;-81
2022/08/08 03:30:08;;;;;;;1.60;1.50;;;19.70;99.90;;;;;;5065238;28;20218;-80
2022/08/08 03:35:22;;;;;;;2.20;2.10;;;19.70;99.90;;;;;;5061326;28;20198;-81
2022/08/08 03:37:49;;;;;;;1.98;1.70;;;19.60;99.90;;;;;;5063727;28;20215;-80
2022/08/08 03:40:20;;;;;;;2.13;2.03;;;19.70;99.90;;;;;;5062817;28;20226;-82
2022/08/08 03:42:49;;;;;;;2.03;1.92;;;19.70;99.90;;;;;;5052716;28;20241;-81
2022/08/08 03:45:18;;;;;;;1.85;1.75;;;19.70;99.90;;;;;;5066919;28;20220;-81
2022/08/08 03:47:55;;;;;;;1.80;1.70;;;19.60;99.90;;;;;;5064943;28;20226;-79
2022/08/08 03:50:22;;;;;;;1.83;1.73;;;19.60;99.90;;;;;;5062537;28;20218;-79
2022/08/08 03:52:50;;;;;;;1.58;1.50;;;19.60;99.90;;;;;;5063369;28;20218;-80
2022/08/08 03:55:20;;;;;;;1.70;1.60;;;19.60;99.90;;;;;;5066910;28;20229;-80
2022/08/08 03:57:50;;;;;;;1.85;1.70;;;19.60;99.90;;;;;;5068029;28;20726;-81
2022/08/08 04:00:19;;;;;;;1.88;1.77;;;19.60;99.90;;;;;;5063160;28;20304;-80
2022/08/08 04:02:58;;;;;;;1.88;1.77;;;19.60;99.90;;;;;;5065553;28;20271;-81
2022/08/08 04:05:27;;;;;;;1.98;1.88;;;19.60;99.90;;;;;;5065012;28;20198;-80
2022/08/08 04:07:54;;;;;;;1.80;1.70;;;19.50;99.90;;;;;;5066549;28;20552;-81
2022/08/08 04:10:23;;;;;;;1.88;1.77;;;19.50;99.90;;;;;;5060134;28;20221;-80
2022/08/08 04:12:50;;;;;;;2.00;1.90;;;19.50;99.90;;;;;;5062555;28;20301;-82
2022/08/08 04:15:18;;;;;;;1.80;1.70;;;19.60;99.90;;;;;;5065585;28;20691;-81
2022/08/08 04:17:45;;;;;;;1.88;1.77;;;19.60;99.90;;;;;;5067633;28;20225;-81
2022/08/08 04:20:12;;;;;;;2.00;1.90;;;19.60;99.90;;;;;;5066535;28;20229;-81
2022/08/08 04:22:39;;;;;;;1.55;1.45;;;19.60;99.90;;;;;;5061915;28;20603;-81
2022/08/08 04:25:07;;;;;;;1.83;1.73;;;19.60;99.90;;;;;;5063308;28;20260;-81
2022/08/08 04:27:37;;;;;;;1.92;1.83;;;19.60;99.90;;;;;;5062785;28;20214;-81
2022/08/08 04:30:06;;;;;;;1.83;1.73;;;19.70;99.90;;;;;;5065053;28;20210;-80
2022/08/08 04:32:33;;;;;;;2.25;2.15;;;19.70;99.90;;;;;;5068457;28;20218;-81
2022/08/08 04:35:01;;;;;;;2.28;2.08;;;19.70;99.90;;;;;;5066328;28;20677;-81
2022/08/08 04:37:28;;;;;;;1.63;1.52;;;19.70;99.90;;;;;;5070095;28;20221;-82
2022/08/08 04:39:55;;;;;;;1.50;1.50;;;19.70;99.90;;;;;;5071732;28;20248;-82
2022/08/08 04:42:24;;;;;;;1.75;1.65;;;19.70;99.90;;;;;;5072371;28;20225;-82
2022/08/08 04:44:56;;;;;;;2.10;2.00;;;19.70;99.90;;;;;;5067300;28;20206;-82
2022/08/08 04:47:24;;;;;;;1.95;1.85;;;19.80;99.90;;;;;;5052007;28;20694;-81
2022/08/08 04:49:51;;;;;;;1.83;1.73;;;19.90;99.90;;;;;;5071860;28;20218;-81
2022/08/08 04:52:19;;;;;;;2.03;1.92;;;20.00;99.90;;;;;;5072502;28;20218;-81
2022/08/08 04:54:46;;;;;;;1.98;1.88;;;20.00;99.90;;;;;;5067371;28;20198;-81
2022/08/08 04:57:13;;;;;;;1.92;1.83;;;20.10;99.90;;;;;;5068293;28;20296;-80
2022/08/08 04:59:40;;;;;;;1.88;1.75;;;20.20;99.90;;;;;;5063197;28;20253;-81
2022/08/08 05:02:09;;;;;;;2.00;1.90;;;20.30;99.90;;;;;;5065724;28;20692;-81
2022/08/08 05:04:36;;;;;;;2.10;2.00;;;20.40;99.90;;;;;;5066654;28;20201;-81
2022/08/08 05:07:03;;;;;;;1.98;1.88;;;20.60;99.90;;;;;;5066854;28;20248;-82
2022/08/08 05:09:31;;;;;;;2.10;2.00;;;20.70;99.90;;;;;;5065547;28;20225;-80
2022/08/08 05:11:58;;;;;;;2.33;2.13;;;20.90;99.90;;;;;;5063862;28;20202;-80
2022/08/08 05:14:25;;;;;;;2.17;2.08;;;20.90;99.90;;;;;;5067035;28;20198;-81
2022/08/08 05:16:52;;;;;;;2.50;2.30;;;20.90;99.90;;;;;;5065254;28;20206;-80
2022/08/08 05:19:21;;;;;;;3.92;2.20;;;20.90;99.90;;;;;;5069529;28;20233;-80
2022/08/08 05:21:52;;;;;;;2.40;2.20;;;20.90;99.90;;;;;;5063473;28;20226;-80
2022/08/08 05:24:19;;;;;;;2.58;2.38;;;20.90;99.90;;;;;;5071198;28;20641;-80
2022/08/08 05:26:46;;;;;;;2.22;2.13;;;20.90;99.90;;;;;;5063915;28;20192;-80
2022/08/08 05:29:13;;;;;;;2.22;2.13;;;20.90;99.90;;;;;;5071356;28;20221;-81
2022/08/08 05:31:41;;;;;;;2.42;2.28;;;21.00;99.90;;;;;;5066095;28;20190;-81
2022/08/08 05:34:18;;;;;;;2.42;2.30;;;21.20;99.90;;;;;;5068943;28;20221;-80
2022/08/08 05:36:49;;;;;;;2.58;2.47;;;21.10;99.90;;;;;;5067052;28;20218;-80
2022/08/08 05:39:21;;;;;;;2.40;2.20;;;21.00;99.90;;;;;;5058657;28;20234;-81
2022/08/08 05:41:51;;;;;;;2.30;2.20;;;20.90;99.90;;;;;;5061338;28;20568;-81
2022/08/08 05:44:23;;;;;;;2.60;2.38;;;20.80;99.90;;;;;;5074388;28;20193;-80
2022/08/08 05:46:53;;;;;;;2.47;2.28;;;20.80;99.90;;;;;;5067369;28;20194;-81
2022/08/08 05:49:21;;;;;;;2.55;2.35;;;20.90;99.90;;;;;;5066226;28;20221;-81
2022/08/08 05:51:49;;;;;;;2.40;2.20;;;20.90;99.90;;;;;;5063767;28;20550;-80
2022/08/08 05:54:18;;;;;;;2.40;2.30;;;20.80;99.90;;;;;;5064841;28;20195;-81
2022/08/08 05:56:46;;;;;;;2.50;2.28;;;20.80;99.90;;;;;;5061389;28;20199;-80
2022/08/08 05:59:19;;;;;;;3.20;2.47;;;20.80;99.90;;;;;;5066818;28;20595;-81
2022/08/08 06:01:52;;;;;;;2.42;2.33;;;20.90;99.90;;;;;;5065095;28;20190;-80
2022/08/08 06:04:23;;;;;;;2.53;2.30;;;20.90;99.90;;;;;;5066532;28;20206;-81
2022/08/08 06:06:54;;;;;;;2.15;2.05;;;21.10;99.90;;;;;;5066823;28;20245;-82
2022/08/08 06:09:27;;;;;;;2.70;2.50;;;21.20;99.90;;;;;;5067700;28;20225;-81
2022/08/08 06:11:59;;;;;;;2.70;2.47;;;21.40;99.90;;;;;;5064066;28;20194;-81
2022/08/08 06:14:27;;;;;;;2.33;2.20;;;21.50;99.90;;;;;;5072471;28;20199;-81
2022/08/08 06:16:58;;;;;;;2.65;2.50;;;21.70;99.90;;;;;;5072307;28;20230;-80
2022/08/08 06:19:26;;;;;;;2.58;2.38;;;21.90;99.90;;;;;;5062617;28;20214;-81
2022/08/08 06:21:55;;;;;;;2.42;2.33;;;22.00;99.90;;;;;;5064123;28;20785;-80
2022/08/08 06:24:22;;;;;;;2.65;2.45;;;21.90;99.90;;;;;;5071812;28;20213;-81
2022/08/08 06:26:54;;;;;;;2.28;2.10;;;21.90;99.90;;;;;;5068826;28;20661;-80
2022/08/08 06:29:30;;;;;;;2.42;2.33;;;21.80;99.90;;;;;;5067469;28;20214;-81
2022/08/08 06:32:02;;;;;;;2.83;2.38;;;21.80;99.90;;;;;;5071667;28;20690;-81
2022/08/08 06:34:36;;;;;;;2.72;2.53;;;21.90;99.90;;;;;;5071893;28;20202;-81
2022/08/08 06:37:10;;;;;;;2.80;2.35;;;22.10;99.90;;;;;;5061058;28;20285;-80
2022/08/08 06:39:38;;;;;;;2.30;2.15;;;22.10;99.90;;;;;;5062512;28;20832;-81
2022/08/08 06:42:08;;;;;;;2.72;2.53;;;22.10;99.90;;;;;;5071077;28;20210;-80
2022/08/08 06:44:39;;;;;;;2.60;2.40;;;22.20;99.90;;;;;;5074266;28;20220;-81
2022/08/08 06:47:06;;;;;;;2.58;2.47;;;22.30;99.90;;;;;;5079964;28;20204;-81
2022/08/08 06:49:34;;;;;;;2.47;2.38;;;22.40;99.90;;;;;;5066037;28;20219;-80
2022/08/08 06:52:03;;;;;;;2.97;2.53;;;22.50;99.90;;;;;;5083844;28;20205;-82
2022/08/08 06:54:32;;;;;;;4.13;2.67;;;22.60;99.90;;;;;;5054431;28;20676;-79
2022/08/08 06:57:00;;;;;;;3.72;2.80;;;22.60;99.90;;;;;;5068030;28;20198;-81
2022/08/08 06:59:27;;;;;;;3.97;2.80;;;22.70;99.90;;;;;;5070950;28;20221;-80
2022/08/08 07:02:00;;;;;;;2.65;2.45;;;22.90;99.90;;;;;;5078762;28;20220;-81
2022/08/08 07:04:36;;;;;;;2.88;2.67;;;23.20;99.90;;;;;;5081043;28;20202;-81
2022/08/08 07:07:09;;;;;;;2.90;2.70;;;23.20;99.90;;;;;;5085188;28;20210;-81
2022/08/08 07:09:57;;;;;;;2.42;2.22;;;23.40;99.90;;;;;;5086736;28;20210;-81
2022/08/08 07:15:33;;;;;;;2.65;2.45;;;23.70;99.90;;;;;;5081164;28;20199;-82
2022/08/08 07:18:04;;;;;;;2.70;2.58;;;24.00;99.90;;;;;;5078787;28;20213;-81
2022/08/08 07:20:36;;;;;;;3.35;3.00;;;23.90;99.90;;;;;;5073826;28;20274;-80
2022/08/08 07:23:10;;;;;;;2.63;2.42;;;23.90;99.90;;;;;;5065679;28;20489;-81
2022/08/08 07:25:44;;;;;;;2.90;2.70;;;23.80;99.90;;;;;;5065557;28;20202;-80
2022/08/08 07:28:18;;;;;;;2.38;2.20;;;23.70;99.90;;;;;;5061325;28;20230;-81
2022/08/08 07:30:46;;;;;;;2.92;2.72;;;23.90;99.90;;;;;;5062698;28;20243;-81
2022/08/08 07:33:18;;;;;;;2.58;2.47;;;24.00;99.90;;;;;;5060213;28;20703;-80
2022/08/08 07:35:47;;;;;;;2.83;2.53;;;24.10;99.90;;;;;;5043091;28;20650;-81
2022/08/08 07:38:17;;;;;;;2.78;2.58;;;24.30;99.90;;;;;;5066166;28;20214;-81
2022/08/08 07:40:49;;;;;;;2.88;2.67;;;24.50;99.90;;;;;;5047809;28;20952;-81
2022/08/08 07:43:16;;;;;;;3.17;2.72;;;24.60;99.90;;;;;;5061193;28;20230;-79
2022/08/08 07:45:46;;;;;;;2.78;2.58;;;24.60;99.90;;;;;;5062913;28;20206;-79
2022/08/08 07:48:13;;;;;;;3.00;2.70;;;24.60;99.90;;;;;;5062327;28;20705;-79
2022/08/08 07:50:40;;;;;;;3.13;2.78;;;24.60;99.90;;;;;;5062457;28;20595;-79
2022/08/08 07:53:17;;;;;;;2.60;2.40;;;24.70;99.90;;;;;;5060502;28;20214;-80
2022/08/08 07:55:48;;;;;;;2.92;2.72;;;24.80;99.90;;;;;;5063655;28;20244;-80
2022/08/08 07:58:21;;;;;;;3.20;2.90;;;24.80;99.90;;;;;;5058613;28;20257;-80
2022/08/08 08:00:50;;;;;;;2.90;2.70;;;24.70;99.90;;;;;;5069504;22;20218;-77
2022/08/08 08:03:22;;;;;;;3.30;2.63;;;24.70;99.90;;;;;;5060797;28;20673;-78
2022/08/08 08:05:51;;;;;;;4.80;2.83;;;24.80;99.90;;;;;;5061289;28;20198;-77
2022/08/08 08:08:21;;;;;;;2.70;2.50;;;25.00;99.90;;;;;;5063579;28;20538;-77
2022/08/08 08:10:52;;;;;;;2.90;2.70;;;25.20;99.90;;;;;;5064313;28;20218;-77
2022/08/08 08:13:32;;;;;;;2.80;2.60;;;25.40;99.90;;;;;;5061838;28;20229;-76
2022/08/08 08:16:02;;;;;;;3.10;2.80;;;25.50;99.90;;;;;;5066394;28;20194;-78
2022/08/08 08:18:34;;;;;;;3.00;2.80;;;25.50;99.90;;;;;;5070923;28;20596;-78
2022/08/08 08:21:03;;;;;;;3.08;2.88;;;25.50;99.90;;;;;;5067575;28;20684;-76
2022/08/08 08:23:30;;;;;;;2.78;2.60;;;25.50;99.90;;;;;;5063106;28;20254;-76
2022/08/08 08:25:59;;;;;;;2.85;2.65;;;25.40;99.90;;;;;;5065912;28;20288;-76
2022/08/08 08:28:26;;;;;;;2.83;2.63;;;25.60;99.90;;;;;;5056975;28;20225;-77
2022/08/08 08:30:54;;;;;;;2.63;2.53;;;25.70;99.90;;;;;;5058080;28;20218;-78
2022/08/08 08:33:21;;;;;;;2.83;2.63;;;26.00;99.90;;;;;;5057727;28;20214;-77
2022/08/08 08:35:49;;;;;;;3.10;2.85;;;26.30;99.90;;;;;;5063844;28;20201;-77
2022/08/08 08:38:16;;;;;;;2.95;2.75;;;26.30;99.90;;;;;;5059379;28;20715;-77
2022/08/08 08:40:43;;;;;;;2.90;2.70;;;26.30;99.90;;;;;;5063547;28;20229;-78
2022/08/08 08:43:14;;;;;;;3.22;3.03;;;26.40;99.90;;;;;;5059043;28;20226;-76
2022/08/08 08:45:42;;;;;;;3.00;2.80;;;26.40;99.90;;;;;;5062071;28;20195;-77
2022/08/08 08:48:10;;;;;;;2.95;2.75;;;26.10;99.90;;;;;;5062618;28;20242;-77
2022/08/08 08:50:39;;;;;;;2.63;2.42;;;26.20;99.90;;;;;;5059189;28;20222;-76
2022/08/08 08:53:09;;;;;;;2.92;2.72;;;26.50;99.90;;;;;;5064954;28;20210;-76
2022/08/08 08:55:39;;;;;;;2.78;2.58;;;27.00;99.90;;;;;;5061445;28;20239;-77
2022/08/08 08:58:08;;;;;;;2.55;2.45;;;27.10;99.90;;;;;;5060315;28;20246;-77
2022/08/08 09:00:38;;;;;;;3.38;2.88;;;27.20;99.90;;;;;;5058374;28;20213;-76
2022/08/08 09:03:09;;;;;;;2.50;2.40;;;27.10;99.90;;;;;;5061985;28;20348;-77
2022/08/08 09:05:40;;;;;;;2.47;2.28;;;27.10;99.90;;;;;;5064442;28;20202;-77
2022/08/08 09:08:08;;;;;;;2.55;2.40;;;27.20;99.90;;;;;;5062364;28;20635;-76
2022/08/08 09:10:37;;;;;;;2.80;2.60;;;27.30;99.90;;;;;;5059572;28;20210;-77
2022/08/08 09:13:06;;;;;;;2.78;2.33;;;27.30;99.90;;;;;;5062282;28;20206;-76
2022/08/08 09:15:33;;;;;;;2.88;2.67;;;27.40;99.90;;;;;;5060288;28;20206;-75
2022/08/08 09:18:03;;;;;;;3.20;3.00;;;27.40;99.90;;;;;;5062726;28;20218;-77
2022/08/08 09:20:33;;;;;;;3.72;2.20;;;27.40;99.90;;;;;;5062789;28;20566;-77
2022/08/08 09:23:01;;;;;;;2.58;2.38;;;27.40;99.90;;;;;;5060448;28;20218;-77
2022/08/08 09:25:28;;;;;;;3.05;2.85;;;27.40;99.90;;;;;;5064896;28;20209;-78
2022/08/08 09:27:57;;;;;;;3.28;2.78;;;27.40;99.90;;;;;;5059916;28;20217;-77
2022/08/08 09:30:26;;;;;;;3.22;2.92;;;27.30;99.90;;;;;;5062483;28;20220;-78
2022/08/08 09:32:55;;;;;;;2.42;2.22;;;27.20;99.90;;;;;;5063501;28;20285;-79
2022/08/08 09:35:28;;;;;;;2.90;2.70;;;27.20;99.90;;;;;;5063614;28;20202;-77
2022/08/08 09:38:00;;;;;;;2.72;2.53;;;27.60;99.90;;;;;;5068066;28;20210;-76
2022/08/08 09:40:29;;;;;;;2.45;2.33;;;27.80;99.90;;;;;;5068037;28;20225;-77
2022/08/08 09:43:07;;;;;;;2.92;2.72;;;28.00;99.90;;;;;;5063599;28;20634;-77
2022/08/08 09:45:40;;;;;;;2.80;2.60;;;28.00;99.90;;;;;;5066240;28;20198;-76
2022/08/08 09:48:10;;;;;;;2.53;2.33;;;27.80;99.90;;;;;;5061344;28;20222;-77
2022/08/08 09:50:40;;;;;;;2.80;2.60;;;27.60;99.90;;;;;;5064699;28;20222;-79
2022/08/08 09:53:11;;;;;;;2.60;2.40;;;27.80;99.90;;;;;;5062789;28;20210;-77
2022/08/08 09:55:39;;;;;;;5.15;2.45;;;27.90;99.90;;;;;;5064740;28;20312;-77
2022/08/08 09:58:08;;;;;;;2.63;2.42;;;28.00;99.90;;;;;;5060808;28;20626;-78
2022/08/08 10:00:38;;;;;;;2.75;2.55;;;28.10;99.90;;;;;;5062859;28;20233;-78
2022/08/08 10:03:06;;;;;;;2.75;2.55;;;28.40;99.90;;;;;;5064493;28;20969;-76
2022/08/08 10:05:35;;;;;;;2.85;2.65;;;28.40;99.90;;;;;;5062978;28;20221;-77
2022/08/08 10:08:05;;;;;;;3.22;2.72;;;28.50;99.90;;;;;;5064368;28;20616;-77
2022/08/08 10:10:34;;;;;;;2.55;2.35;;;28.40;99.90;;;;;;5062972;28;20225;-77
2022/08/08 10:13:02;;;;;;;3.78;2.58;;;28.40;99.90;;;;;;5063683;28;20597;-77
2022/08/08 10:15:38;;;;;;;2.80;2.60;;;28.40;99.90;;;;;;5068514;28;20203;-77
2022/08/08 10:18:05;;;;;;;2.47;2.28;;;28.40;99.90;;;;;;5065541;28;20209;-78
2022/08/08 10:20:41;;;;;;;2.45;2.25;;;28.80;99.90;;;;;;5065759;28;20265;-76
2022/08/08 10:23:12;;;;;;;2.70;2.50;;;28.90;99.90;;;;;;5064477;28;20226;-77
2022/08/08 10:25:41;;;;;;;2.50;2.30;;;29.00;99.90;;;;;;5066778;28;20203;-76
2022/08/08 10:28:15;;;;;;;2.70;2.50;;;29.00;99.90;;;;;;5072649;28;20643;-78
2022/08/08 10:30:55;;;;;;;2.55;2.45;;;29.20;99.90;;;;;;5067743;28;20218;-76
2022/08/08 10:33:30;;;;;;;2.58;2.20;;;29.30;99.90;;;;;;5063928;28;20237;-77
2022/08/08 10:36:02;;;;;;;2.28;2.08;;;29.40;99.90;;;;;;5063303;28;20198;-78
2022/08/08 10:38:33;;;;;;;2.47;2.28;;;29.60;99.90;;;;;;5064064;28;20640;-77
2022/08/08 10:41:04;;;;;;;3.05;2.28;;;29.70;99.90;;;;;;5064604;28;20229;-77
2022/08/08 10:43:38;;;;;;;2.13;2.03;;;29.60;99.90;;;;;;5068031;28;20246;-79
2022/08/08 10:46:24;;;;;;;2.10;2.00;;;29.60;99.90;;;;;;5064281;28;20228;-77
2022/08/08 10:48:52;;;;;;;1.90;1.80;;;29.70;99.90;;;;;;5064268;28;20324;-76
2022/08/08 10:51:19;;;;;;;2.20;2.10;;;30.00;99.90;;;;;;5062375;28;20222;-77
2022/08/08 10:53:51;;;;;;;2.42;2.33;;;30.30;99.90;;;;;;5063367;28;20570;-77
2022/08/08 10:56:19;;;;;;;3.13;2.38;;;30.40;99.90;;;;;;5069141;28;20202;-77
2022/08/08 10:58:46;;;;;;;2.17;2.00;;;30.60;99.90;;;;;;5065241;28;20218;-75
2022/08/08 11:01:14;;;;;;;2.08;1.98;;;30.60;99.90;;;;;;5065308;28;20225;-78
2022/08/08 11:03:43;;;;;;;2.83;2.15;;;30.50;99.90;;;;;;5062956;28;20309;-77
2022/08/08 11:06:10;;;;;;;1.98;1.88;;;30.40;99.90;;;;;;5060308;28;20290;-75
2022/08/08 11:08:39;;;;;;;2.10;2.00;;;30.30;99.90;;;;;;5061630;28;20664;-75
2022/08/08 11:11:09;;;;;;;2.30;2.20;;;30.30;99.90;;;;;;5064167;28;20236;-75
2022/08/08 11:13:40;;;;;;;2.42;2.13;;;30.20;99.90;;;;;;5057787;28;20210;-75
2022/08/08 11:16:08;;;;;;;2.00;1.90;;;30.30;99.90;;;;;;5062610;28;20292;-77
2022/08/08 11:18:36;;;;;;;2.30;2.20;;;30.60;99.90;;;;;;5062913;28;20325;-76
2022/08/08 11:21:06;;;;;;;1.92;1.83;;;31.00;99.90;;;;;;5061959;28;20222;-77
2022/08/08 11:23:34;;;;;;;2.13;2.03;;;31.20;99.90;;;;;;5062609;28;20227;-77
2022/08/08 11:26:04;;;;;;;2.28;2.15;;;31.40;99.90;;;;;;5063480;28;20206;-77
2022/08/08 11:28:35;;;;;;;4.45;2.08;;;31.40;99.90;;;;;;5064237;28;20222;-76
2022/08/08 11:31:04;;;;;;;1.83;1.73;;;31.20;99.90;;;;;;5062104;28;20225;-75
2022/08/08 11:33:33;;;;;;;1.77;1.67;;;31.00;99.90;;;;;;5063950;28;20764;-77
2022/08/08 11:36:01;;;;;;;1.80;1.70;;;30.90;99.90;;;;;;5063264;28;20634;-76
2022/08/08 11:38:28;;;;;;;2.20;2.10;;;30.90;99.90;;;;;;5061856;28;20321;-77
2022/08/08 11:40:56;;;;;;;2.00;1.88;;;31.10;99.90;;;;;;5059998;28;20328;-77
2022/08/08 11:43:24;;;;;;;2.47;1.90;;;31.30;99.90;;;;;;5065632;28;20251;-76
2022/08/08 11:45:53;;;;;;;2.00;1.85;;;31.30;99.90;;;;;;5062634;28;20199;-76
2022/08/08 11:48:21;;;;;;;2.47;2.38;;;31.30;99.90;;;;;;5066051;28;20244;-76
2022/08/08 11:50:49;;;;;;;1.75;1.65;;;31.30;99.90;;;;;;5059646;28;20224;-76
2022/08/08 11:53:16;;;;;;;3.13;1.92;;;31.40;99.90;;;;;;5061923;28;20218;-76
2022/08/08 11:55:48;;;;;;;1.90;1.80;;;31.30;99.90;;;;;;5061792;28;20573;-76
2022/08/08 11:58:16;;;;;;;1.85;1.75;;;31.40;99.90;;;;;;5063742;28;20750;-76
2022/08/08 12:00:47;;;;;;;1.80;1.70;;;31.40;99.90;;;;;;5060047;28;20225;-76
2022/08/08 12:03:22;;;;;;;1.80;1.70;;;31.50;99.90;;;;;;5064688;28;20232;-76
2022/08/08 12:05:50;;;;;;;1.92;1.80;;;31.70;99.90;;;;;;5060895;28;20190;-76
2022/08/08 12:08:29;;;;;;;2.28;2.03;;;31.70;99.90;;;;;;5058799;28;20301;-76
2022/08/08 12:11:00;;;;;;;1.73;1.63;;;31.70;99.90;;;;;;5060907;28;20222;-77
2022/08/08 12:13:27;;;;;;;2.85;2.08;;;31.60;99.90;;;;;;5064413;28;20217;-77
2022/08/08 12:16:05;;;;;;;1.70;1.60;;;31.50;99.90;;;;;;5061734;28;20205;-76
2022/08/08 12:18:44;;;;;;;1.70;1.60;;;31.60;99.90;;;;;;5062981;28;20230;-74
2022/08/08 12:21:22;;;;;;;1.73;1.63;;;31.60;99.90;;;;;;5062774;28;20210;-75
2022/08/08 12:23:49;;;;;;;1.88;1.70;;;31.70;99.90;;;;;;5062918;28;20261;-76
2022/08/08 12:26:20;;;;;;;2.22;1.50;;;31.80;99.90;;;;;;5066473;28;20248;-76
2022/08/08 12:28:57;;;;;;;1.80;1.70;;;31.80;99.90;;;;;;5058528;28;20233;-77
2022/08/08 12:31:33;;;;;;;2.15;1.73;;;31.80;99.90;;;;;;5062457;28;20217;-75
2022/08/08 12:34:02;;;;;;;1.90;1.60;;;31.70;99.90;;;;;;5063173;28;20213;-76
2022/08/08 12:36:40;;;;;;;1.52;1.42;;;31.70;99.90;;;;;;5066104;28;20206;-76
2022/08/08 12:39:07;;;;;;;1.70;1.60;;;31.80;99.90;;;;;;5063747;28;20214;-76
2022/08/08 12:41:35;;;;;;;1.50;1.40;;;32.00;99.90;;;;;;5064206;28;20948;-77
2022/08/08 12:44:07;;;;;;;1.55;1.45;;;32.10;99.90;;;;;;5064142;28;20237;-77
2022/08/08 12:46:35;;;;;;;1.45;1.35;;;31.90;99.90;;;;;;5066448;28;20268;-76
2022/08/08 12:49:05;;;;;;;1.60;1.50;;;31.80;99.90;;;;;;5060656;28;20315;-77
2022/08/08 12:51:50;;;;;;;1.67;1.58;;;31.80;99.90;;;;;;5057512;28;20748;-76
2022/08/08 12:54:22;;;;;;;1.50;1.40;;;31.70;99.90;;;;;;5061605;28;20218;-76
2022/08/08 12:56:49;;;;;;;1.52;1.33;;;31.70;99.90;;;;;;5060444;28;20277;-76
2022/08/08 12:59:18;;;;;;;1.58;1.48;;;31.80;99.90;;;;;;5058383;28;20202;-76
2022/08/08 13:01:51;;;;;;;2.10;1.33;;;31.90;99.90;;;;;;5057295;28;20226;-76
2022/08/08 13:04:21;;;;;;;1.50;1.40;;;32.00;99.90;;;;;;5061869;28;20222;-77
2022/08/08 13:06:57;;;;;;;1.50;1.40;;;32.00;99.90;;;;;;5059829;28;20197;-77
2022/08/08 13:09:38;;;;;;;4.07;1.52;;;32.00;99.90;;;;;;5061069;28;20206;-78
2022/08/08 13:12:13;;;;;;;1.13;1.13;;;31.90;99.90;;;;;;5065159;28;20214;-77
2022/08/08 13:14:43;;;;;;;2.05;1.25;;;32.00;99.90;;;;;;5066268;28;20198;-76
2022/08/08 13:17:10;;;;;;;1.27;1.27;;;32.20;99.90;;;;;;5065321;28;20225;-74
2022/08/08 13:19:39;;;;;;;1.27;1.20;;;32.20;99.90;;;;;;5062052;28;20213;-76
2022/08/08 13:22:07;;;;;;;1.65;1.55;;;32.20;99.90;;;;;;5062489;28;20739;-76
2022/08/08 13:24:38;;;;;;;1.80;1.70;;;32.00;99.90;;;;;;5063546;28;21979;-76
2022/08/08 13:27:07;;;;;;;1.30;1.20;;;32.00;99.90;;;;;;5068448;28;20183;-76
2022/08/08 13:29:36;;;;;;;2.00;1.50;;;32.10;99.90;;;;;;5064370;28;20195;-76
2022/08/08 13:32:05;;;;;;;1.60;1.50;;;32.20;99.90;;;;;;5063147;28;20257;-78
2022/08/08 13:34:39;;;;;;;2.20;1.27;;;32.20;99.90;;;;;;5065184;28;20190;-76